createdAt,value
2017-10-31T10:23:37.807Z,101874.56
2017-10-31T10:26:05.334Z,101877.91
2017-10-31T10:28:32.904Z,101883.56
2017-10-31T10:31:00.476Z,101871.52
2017-10-31T10:33:28.067Z,101882.71
2017-10-31T10:35:56.450Z,101879.70
2017-10-31T10:38:23.981Z,101879.33
2017-10-31T10:40:51.565Z,101877.23
2017-10-31T10:43:19.131Z,101874.20
2017-10-31T10:45:46.692Z,101875.77
2017-10-31T10:48:14.229Z,101867.87
2017-10-31T10:50:41.809Z,101869.02
2017-10-31T10:53:09.368Z,101864.95
2017-10-31T10:55:36.904Z,101867.87
2017-10-31T10:58:04.475Z,101865.98
2017-10-31T11:00:44.777Z,101861.61
2017-10-31T11:03:12.304Z,101864.10
2017-10-31T11:05:40.057Z,101864.13
2017-10-31T11:08:07.624Z,101865.02
2017-10-31T11:10:35.296Z,101863.95
2017-10-31T11:13:02.968Z,101863.73
2017-10-31T11:15:30.521Z,101862.77
2017-10-31T11:17:58.050Z,101865.05
2017-10-31T11:20:25.617Z,101867.16
2017-10-31T11:22:53.296Z,101871.20
2017-10-31T11:25:20.865Z,101869.81
2017-10-31T11:27:48.389Z,101869.61
2017-10-31T11:30:16.995Z,101869.20
2017-10-31T11:32:44.555Z,101872.95
2017-10-31T11:35:12.090Z,101875.17
2017-10-31T11:37:39.689Z,101866.20
2017-10-31T11:40:07.257Z,101870.45
2017-10-31T11:42:34.811Z,101873.06
2017-10-31T11:45:02.844Z,101871.94
2017-10-31T11:47:30.376Z,101866.50
2017-10-31T11:49:57.908Z,101865.03
2017-10-31T11:52:25.456Z,101868.67
2017-10-31T11:54:54.166Z,101865.08
2017-10-31T11:57:21.692Z,101862.03
2017-10-31T11:59:49.370Z,101859.67
2017-10-31T12:02:17.031Z,101860.03
2017-10-31T12:04:44.556Z,101854.02
2017-10-31T12:07:12.083Z,101855.59
2017-10-31T12:09:39.621Z,101853.17
2017-10-31T12:12:07.173Z,101854.05
2017-10-31T12:14:34.705Z,101852.69
2017-10-31T12:17:02.292Z,101847.79
2017-10-31T12:19:29.857Z,101845.00
2017-10-31T12:21:57.381Z,101853.58
2017-10-31T12:24:25.849Z,101846.23
2017-10-31T12:26:54.040Z,101844.20
2017-10-31T12:29:21.616Z,101844.45
2017-10-31T12:31:49.147Z,101842.03
2017-10-31T12:34:16.680Z,101841.06
2017-10-31T12:36:44.309Z,101843.41
2017-10-31T12:39:11.849Z,101838.45
2017-10-31T12:41:39.449Z,101840.98
2017-10-31T12:44:06.979Z,101835.72
2017-10-31T12:46:34.532Z,101837.41
2017-10-31T12:49:02.113Z,101841.48
2017-10-31T12:51:29.672Z,101839.25
2017-10-31T12:53:57.197Z,101841.24
2017-10-31T12:56:24.788Z,101843.64
2017-10-31T12:58:52.316Z,101846.17
2017-10-31T13:01:19.839Z,101836.06
2017-10-31T13:03:47.774Z,101842.96
2017-10-31T13:06:15.337Z,101833.59
2017-10-31T13:08:42.927Z,101832.08
2017-10-31T13:11:10.764Z,101828.85
2017-10-31T13:13:38.296Z,101835.36
2017-10-31T13:16:05.898Z,101832.83
2017-10-31T13:18:33.433Z,101832.34
2017-10-31T13:21:01.031Z,101836.26
2017-10-31T13:23:28.685Z,101836.38
2017-10-31T13:25:56.332Z,101834.06
2017-10-31T13:28:25.201Z,101838.51
2017-10-31T13:30:54.798Z,101838.59
2017-10-31T13:33:22.901Z,101837.11
2017-10-31T13:35:50.914Z,101831.78
2017-10-31T13:38:20.844Z,101832.98
2017-10-31T13:40:49.009Z,101832.23
2017-10-31T13:43:18.109Z,101830.66
2017-10-31T13:45:46.415Z,101826.97
2017-10-31T13:48:14.499Z,101826.50
2017-10-31T13:50:43.129Z,101829.29
2017-10-31T13:53:11.429Z,101832.22
2017-10-31T13:55:38.964Z,101830.59
2017-10-31T13:58:06.597Z,101825.12
2017-10-31T14:00:34.365Z,101829.21
2017-10-31T14:03:02.465Z,101835.56
2017-10-31T14:05:30.300Z,101828.73
2017-10-31T14:07:58.055Z,101831.87
2017-10-31T14:10:25.810Z,101831.11
2017-10-31T14:12:54.252Z,101826.63
2017-10-31T14:15:21.793Z,101829.31
2017-10-31T14:17:49.355Z,101820.34
2017-10-31T14:20:19.194Z,101817.34
2017-10-31T14:22:47.576Z,101817.25
2017-10-31T14:25:15.117Z,101819.17
2017-10-31T14:27:43.038Z,101814.54
2017-10-31T14:30:10.561Z,101813.86
2017-10-31T14:32:38.095Z,101812.41
2017-10-31T14:35:05.660Z,101815.80
2017-10-31T14:37:33.222Z,101813.44
2017-10-31T14:40:00.797Z,101813.13
2017-10-31T14:42:28.428Z,101813.46
2017-10-31T14:44:56.258Z,101813.53
2017-10-31T14:47:23.853Z,101806.65
2017-10-31T14:49:51.385Z,101812.80
2017-10-31T14:52:18.977Z,101815.10
2017-10-31T14:54:46.512Z,101819.66
2017-10-31T14:57:14.037Z,101814.53
2017-10-31T14:59:41.661Z,101808.59
2017-10-31T15:02:09.192Z,101812.42
2017-10-31T15:04:36.751Z,101815.07
2017-10-31T15:07:04.281Z,101806.01
2017-10-31T15:09:31.944Z,101809.73
2017-10-31T15:11:59.469Z,101801.46
2017-10-31T15:14:27.677Z,101799.00
2017-10-31T15:16:55.257Z,101802.70
2017-10-31T15:19:22.782Z,101802.38
2017-10-31T15:21:50.340Z,101800.03
2017-10-31T15:24:17.868Z,101798.50
2017-10-31T15:26:45.434Z,101797.09
2017-10-31T15:29:13.011Z,101792.52
2017-10-31T15:31:40.569Z,101791.88
2017-10-31T15:34:08.099Z,101800.73
2017-10-31T15:36:35.657Z,101791.78
2017-10-31T15:39:03.188Z,101795.82
2017-10-31T15:41:30.754Z,101789.89
2017-10-31T15:43:58.361Z,101795.17
2017-10-31T15:46:25.889Z,101803.44
2017-10-31T15:48:53.417Z,101804.72
2017-10-31T15:51:21.035Z,101800.63
2017-10-31T15:53:48.602Z,101806.00
2017-10-31T15:56:17.189Z,101806.94
2017-10-31T15:58:44.752Z,101813.49
2017-10-31T16:01:12.280Z,101810.94
2017-10-31T16:03:39.868Z,101813.94
2017-10-31T16:06:07.437Z,101820.27
2017-10-31T16:08:35.009Z,101823.68
2017-10-31T16:11:02.544Z,101827.73
2017-10-31T16:13:30.080Z,101814.14
2017-10-31T16:15:57.605Z,101821.23
2017-10-31T16:18:25.240Z,101822.76
2017-10-31T16:20:52.802Z,101818.59
2017-10-31T16:23:20.377Z,101815.96
2017-10-31T16:25:47.908Z,101812.84
2017-10-31T16:28:15.433Z,101809.55
2017-10-31T16:30:42.997Z,101803.30
2017-10-31T16:33:10.529Z,101801.09
2017-10-31T16:35:38.056Z,101806.47
2017-10-31T16:38:05.617Z,101816.45
2017-10-31T16:40:33.641Z,101805.59
2017-10-31T16:43:01.270Z,101813.75
2017-10-31T16:45:28.836Z,101815.41
2017-10-31T16:47:56.366Z,101814.95
2017-10-31T16:50:23.896Z,101817.44
2017-10-31T16:52:51.460Z,101820.36
2017-10-31T16:55:19.693Z,101818.31
2017-10-31T16:57:47.276Z,101816.80
2017-10-31T17:00:14.875Z,101818.12
2017-10-31T17:02:42.408Z,101823.95
2017-10-31T17:05:09.953Z,101811.50
2017-10-31T17:07:37.483Z,101821.59
2017-10-31T17:10:05.012Z,101818.77
2017-10-31T17:12:32.543Z,101823.63
2017-10-31T17:15:00.135Z,101819.38
2017-10-31T17:17:27.660Z,101822.64
2017-10-31T17:19:55.229Z,101829.06
2017-10-31T17:22:22.761Z,101824.98
2017-10-31T17:24:50.341Z,101824.34
2017-10-31T17:27:18.434Z,101830.52
2017-10-31T17:29:45.977Z,101827.20
2017-10-31T17:32:13.515Z,101827.12
2017-10-31T17:34:41.049Z,101829.80
2017-10-31T17:37:08.590Z,101822.88
2017-10-31T17:39:36.463Z,101819.41
2017-10-31T17:42:04.028Z,101818.11
2017-10-31T17:44:31.553Z,101822.58
2017-10-31T17:46:59.113Z,101820.91
2017-10-31T17:49:26.676Z,101813.53
2017-10-31T17:51:54.205Z,101810.39
2017-10-31T17:54:21.784Z,101813.17
2017-10-31T17:56:49.968Z,101799.28
2017-10-31T17:59:17.652Z,101805.86
2017-10-31T18:01:45.327Z,101799.79
2017-10-31T18:04:12.895Z,101804.89
2017-10-31T18:06:40.435Z,101805.52
2017-10-31T18:09:07.964Z,101802.85
2017-10-31T18:11:35.500Z,101789.47
2017-10-31T18:14:03.034Z,101790.23
2017-10-31T18:16:30.574Z,101788.12
2017-10-31T18:18:58.114Z,101782.86
2017-10-31T18:21:25.652Z,101792.84
2017-10-31T18:23:53.240Z,101787.95
2017-10-31T18:26:20.842Z,101780.30
2017-10-31T18:28:48.897Z,101784.44
2017-10-31T18:31:16.438Z,101786.73
2017-10-31T18:33:43.962Z,101781.45
2017-10-31T18:36:11.598Z,101781.20
2017-10-31T18:38:39.121Z,101787.61
2017-10-31T18:41:06.652Z,101785.84
2017-10-31T18:43:34.183Z,101779.44
2017-10-31T18:46:01.727Z,101782.33
2017-10-31T18:48:29.257Z,101780.38
2017-10-31T18:50:56.793Z,101778.03
2017-10-31T18:53:24.330Z,101768.05
2017-10-31T18:55:51.877Z,101765.44
2017-10-31T18:58:22.005Z,101765.55
2017-10-31T19:00:49.534Z,101769.97
2017-10-31T19:03:17.052Z,101765.63
2017-10-31T19:05:44.588Z,101766.36
2017-10-31T19:08:12.233Z,101763.52
2017-10-31T19:10:39.794Z,101766.16
2017-10-31T19:13:08.280Z,101755.64
2017-10-31T19:15:36.806Z,101755.27
2017-10-31T19:18:04.408Z,101747.72
2017-10-31T19:20:31.972Z,101747.52
2017-10-31T19:22:59.542Z,101744.84
2017-10-31T19:25:27.188Z,101746.00
2017-10-31T19:27:54.728Z,101745.05
2017-10-31T19:30:22.288Z,101752.23
2017-10-31T19:32:49.875Z,101752.94
2017-10-31T19:35:17.430Z,101759.48
2017-10-31T19:37:45.009Z,101756.28
2017-10-31T19:40:12.571Z,101753.47
2017-10-31T19:42:40.098Z,101763.66
2017-10-31T19:45:08.232Z,101752.14
2017-10-31T19:47:35.938Z,101750.59
2017-10-31T19:50:04.622Z,101754.86
2017-10-31T19:52:32.206Z,101748.55
2017-10-31T19:54:59.757Z,101755.38
2017-10-31T19:57:27.294Z,101756.41
2017-10-31T19:59:55.280Z,101756.38
2017-10-31T20:02:22.815Z,101757.62
2017-10-31T20:04:50.391Z,101751.48
2017-10-31T20:07:18.073Z,101752.78
2017-10-31T20:09:45.649Z,101747.25
2017-10-31T20:12:13.177Z,101755.42
2017-10-31T20:14:40.765Z,101749.11
2017-10-31T20:17:08.777Z,101751.68
2017-10-31T20:19:36.314Z,101752.45
2017-10-31T20:22:03.844Z,101750.27
2017-10-31T20:24:31.426Z,101752.14
2017-10-31T20:26:58.970Z,101750.21
2017-10-31T20:29:26.525Z,101748.65
2017-10-31T20:31:54.059Z,101752.28
2017-10-31T20:34:21.668Z,101743.27
2017-10-31T20:36:49.206Z,101742.88
2017-10-31T20:39:16.777Z,101744.84
2017-10-31T20:41:44.320Z,101737.72
2017-10-31T20:44:11.912Z,101725.97
2017-10-31T20:46:39.878Z,101723.93
2017-10-31T20:49:07.416Z,101726.48
2017-10-31T20:51:35.004Z,101726.97
2017-10-31T20:54:02.576Z,101714.75
2017-10-31T20:56:30.312Z,101718.80
2017-10-31T20:58:57.845Z,101714.89
2017-10-31T21:01:25.689Z,101719.48
2017-10-31T21:03:53.454Z,101719.03
2017-10-31T21:06:21.010Z,101720.36
2017-10-31T21:08:48.580Z,101714.44
2017-10-31T21:11:16.117Z,101714.23
2017-10-31T21:13:43.687Z,101712.62
2017-10-31T21:16:11.223Z,101713.11
2017-10-31T21:18:38.872Z,101705.17
2017-10-31T21:21:06.412Z,101708.82
2017-10-31T21:23:33.984Z,101700.20
2017-10-31T21:26:01.527Z,101701.50
2017-10-31T21:28:29.116Z,101700.20
2017-10-31T21:30:56.682Z,101700.77
2017-10-31T21:33:24.231Z,101698.64
2017-10-31T21:35:51.763Z,101698.70
2017-10-31T21:38:19.355Z,101695.84
2017-10-31T21:40:46.898Z,101695.64
2017-10-31T21:43:14.653Z,101696.27
2017-10-31T21:45:42.195Z,101695.24
2017-10-31T21:48:09.739Z,101693.14
2017-10-31T21:50:37.357Z,101687.16
2017-10-31T21:53:04.890Z,101685.86
2017-10-31T21:55:32.465Z,101687.14
2017-10-31T21:58:00.016Z,101691.52
2017-10-31T22:00:27.560Z,101681.07
2017-10-31T22:02:55.106Z,101682.48
2017-10-31T22:05:22.685Z,101676.47
2017-10-31T22:07:50.221Z,101674.88
2017-10-31T22:10:17.846Z,101669.44
2017-10-31T22:12:46.324Z,101669.31
2017-10-31T22:15:13.989Z,101668.38
2017-10-31T22:17:41.558Z,101661.72
2017-10-31T22:20:09.120Z,101666.05
2017-10-31T22:22:36.661Z,101659.64
2017-10-31T22:25:04.233Z,101657.98
2017-10-31T22:27:31.773Z,101657.23
2017-10-31T22:29:59.347Z,101646.41
2017-10-31T22:32:26.883Z,101649.92
2017-10-31T22:34:54.679Z,101645.91
2017-10-31T22:37:22.210Z,101650.44
2017-10-31T22:39:49.780Z,101646.86
2017-10-31T22:42:17.364Z,101636.30
2017-10-31T22:44:44.907Z,101637.44
2017-10-31T22:47:12.477Z,101639.14
2017-10-31T22:49:40.100Z,101638.34
2017-10-31T22:52:07.699Z,101640.98
2017-10-31T22:54:35.281Z,101635.45
2017-10-31T22:57:02.824Z,101636.19
2017-10-31T22:59:30.381Z,101630.75
2017-10-31T23:01:57.912Z,101634.42
2017-10-31T23:04:25.444Z,101621.50
2017-10-31T23:06:53.640Z,101622.92
2017-10-31T23:09:21.180Z,101625.56
2017-10-31T23:11:48.745Z,101629.90
2017-10-31T23:14:16.281Z,101625.81
2017-10-31T23:16:43.848Z,101624.38
2017-10-31T23:19:11.428Z,101620.28
2017-10-31T23:21:38.957Z,101620.74
2017-10-31T23:24:06.490Z,101617.13
2017-10-31T23:26:34.070Z,101616.37
2017-10-31T23:29:01.713Z,101614.61
2017-10-31T23:31:29.254Z,101610.25
2017-10-31T23:33:56.785Z,101604.78
2017-10-31T23:36:24.899Z,101607.15
2017-10-31T23:38:53.583Z,101601.78
2017-10-31T23:41:21.125Z,101599.10
2017-10-31T23:43:48.652Z,101599.53
2017-10-31T23:46:16.376Z,101597.98
2017-10-31T23:48:43.909Z,101596.04
2017-10-31T23:51:11.453Z,101591.73
2017-10-31T23:53:38.985Z,101587.45
2017-10-31T23:56:07.212Z,101588.55
2017-10-31T23:58:34.802Z,101583.93
